Terminal Aerodrome Forecast
Issued by NWS Billings, MT

Home | Current Version | Previous Version | Graphics & Text | Print | Product List | Glossary On
Versions: 1 2 3 4 5 6 7 8 9 10 11 12 13 14 15
000
FTUS45 KBYZ 151720
TAFMLS
TAF
KMLS 151720Z 1518/1618 26012KT P6SM FEW120 BKN250
     FM160100 33017G27KT P6SM VCSH SCT090 OVC150
     FM161100 36013KT P6SM VCSH OVC060=

USA.gov is the U.S. government's official web portal to all federal, state and local government web resources and services.